Time;durP1;ratioP1;P1;durP2;ratioP2;P2;SDS_P1;SDS_P2;PMS_P1;PMS_P2;Temp;Humidity;BMP_temperature;BMP_pressure;BME280_temperature;BME280_humidity;BME280_pressure;Samples;Min_cycle;Max_cycle;Signal;HPM_P1;HPM_P2
2022/11/21 00:02:47;;;;;;;;;;;;;;;2.17;91.97461;100732.7;;;;-76
2022/11/21 00:08:13;;;;;;;;;;;;;;;2.25;91.94824;100727.1;;;;-77
2022/11/21 00:12:53;;;;;;;;;;;;;;;2.17;92.00684;100742.6;;;;-77
2022/11/21 00:17:40;;;;;;;;;;;;;;;2.18;91.88086;100759;;;;-78
2022/11/21 00:22:39;;;;;;;;;;;;;;;2.17;91.86816;100760.4;;;;-77
2022/11/21 00:43:28;;;;;;;;;;;;;;;2.27;91.94141;100747.9;;;;-75
2022/11/21 00:51:54;;;;;;;;;;;;;;;2.28;91.87012;100737.7;;;;-75
2022/11/21 00:59:20;;;;;;;;;;;;;;;2.19;91.94531;100731.4;;;;-77
2022/11/21 01:07:23;;;;;;;13;5.9;;;;;;;;;;;;;-76
2022/11/21 01:14:25;;;;;;;;;;;;;;;2.16;92.04785;100722.7;;;;-76
2022/11/21 01:19:13;;;;;;;;;;;;;;;2.16;92.31836;100705.6;;;;-76
2022/11/21 01:24:23;;;;;;;;;;;;;;;2.15;92.38086;100711.9;;;;-75
2022/11/21 01:29:21;;;;;;;;;;;;;;;2.15;92.20801;100721.9;;;;-76
2022/11/21 01:34:36;;;;;;;;;;;;;;;2.13;92.32324;100716.1;;;;-76
2022/11/21 01:37:32;;;;;;;12.7;5.7;;;;;;;;;;;;;-76
2022/11/21 01:44:39;;;;;;;;;;;;;;;2.1;92.6416;100701.7;;;;-76
2022/11/21 01:53:36;;;;;;;;;;;;;;;2.1;92.2959;100710.7;;;;-77
2022/11/21 01:58:31;;;;;;;;;;;;;;;2.07;92.46094;100706.5;;;;-76
2022/11/21 02:01:14;;;;;;;;;;;;;;;2.15;92.35938;100710.6;;;;-75
2022/11/21 02:07:41;;;;;;;;;;;;;;;2.1;92.42383;100717.6;;;;-76
2022/11/21 02:09:36;;;;;;;;;;;;;;;2.13;92.06348;100723.7;;;;-76
2022/11/21 02:13:08;;;;;;;;;;;;;;;2;92.3584;100723.3;;;;-77
2022/11/21 02:18:07;;;;;;;;;;;;;;;1.97;92.33105;100711.7;;;;-76
2022/11/21 02:28:02;;;;;;;;;;;;;;;1.89;92.38965;100711.6;;;;-76
2022/11/21 02:33:04;;;;;;;;;;;;;;;1.89;92.37793;100718.6;;;;-76
2022/11/21 02:37:37;;;;;;;;;;;;;;;;;;;;;
2022/11/21 02:44:08;;;;;;;;;;;;;;;1.98;92.13867;100707.7;;;;-76
2022/11/21 02:47:05;;;;;;;;;;;;;;;1.86;92.2002;100695.2;;;;-76
2022/11/21 02:52:02;;;;;;;;;;;;;;;1.85;92.35938;100680.4;;;;-77
2022/11/21 02:57:00;;;;;;;;;;;;;;;1.82;92.48145;100671.7;;;;-76
2022/11/21 03:01:48;;;;;;;;;;;;;;;1.76;92.5127;100669.7;;;;-76
2022/11/21 03:06:48;;;;;;;;;;;;;;;1.68;92.46289;100654.5;;;;-77
2022/11/21 03:07:26;;;;;;;14.5;6.9;;;;;;;;;;;;;-77
2022/11/21 03:11:48;;;;;;;;;;;;;;;1.58;92.53027;100646.6;;;;-76
2022/11/21 03:16:49;;;;;;;;;;;;;;;1.51;92.5791;100644;;;;-75
2022/11/21 03:26:52;;;;;;;;;;;;;;;1.41;92.4043;100629.9;;;;-75
2022/11/21 03:32:11;;;;;;;;;;;;;;;1.35;92.53516;100629.8;;;;-75
2022/11/21 03:33:33;;;;;;;;;;;;;;;1.44;92.54199;100628.2;;;;-76
2022/11/21 03:37:56;;;;;;;;;;;;;;;;;;;;;
2022/11/21 03:38:49;;;;;;;;;;;;;;;;;;;;;
2022/11/21 03:42:58;;;;;;;;;;;;;;;1.33;92.53906;100642.1;;;;-77
2022/11/21 03:47:52;;;;;;;;;;;;;;;1.36;92.57813;100648.8;;;;-77
2022/11/21 03:52:56;;;;;;;;;;;;;;;1.37;92.28613;100635.3;;;;-76
2022/11/21 03:57:56;;;;;;;;;;;;;;;1.37;92.46094;100638.2;;;;-75
2022/11/21 04:07:45;;;;;;;;;;;;;;;1.49;92.48633;100617.9;;;;-74
2022/11/21 04:11:09;;;;;;;;;;;;;;;1.41;92.50293;100626.5;;;;-75
2022/11/21 04:15:58;;;;;;;;;;;;;;;1.45;92.48926;100630.4;;;;-76
2022/11/21 04:20:56;;;;;;;;;;;;;;;1.48;92.48633;100634.9;;;;-76
2022/11/21 04:25:54;;;;;;;;;;;;;;;1.5;92.52051;100621.3;;;;-78
2022/11/21 04:36:02;;;;;;;;;;;;;;;1.55;92.96484;100612.4;;;;-76
2022/11/21 04:43:12;;;;;;;;;;;;;;;1.59;92.7998;100610.4;;;;-75
2022/11/21 04:47:55;;;;;;;;;;;;;;;1.6;92.8252;100606.8;;;;-76
2022/11/21 04:53:04;;;;;;;;;;;;;;;1.62;92.7627;100608.5;;;;-76
2022/11/21 04:57:55;;;;;;;;;;;;;;;1.63;92.77734;100597.7;;;;-75
2022/11/21 05:07:15;;;;;;;21.5;7.8;;;;;;;;;;;;;-75
2022/11/21 05:07:29;;;;;;;;;;;;;;;1.62;92.9375;100577.8;;;;-76
2022/11/21 05:17:40;;;;;;;;;;;;;;;1.65;93.18066;100574.9;;;;-76
2022/11/21 05:27:38;;;;;;;;;;;;;;;1.66;93.21484;100571.9;;;;-75
2022/11/21 05:32:39;;;;;;;;;;;;;;;1.68;93.1123;100561.6;;;;-76
2022/11/21 05:37:17;;;;;;;24;8.3;;;;;;;;;;;;;-75
2022/11/21 05:37:38;;;;;;;;;;;;;;;1.7;93.4082;100564.9;;;;-76
2022/11/21 05:52:46;;;;;;;;;;;;;;;1.86;93.57129;100539.4;;;;-77
2022/11/21 05:56:29;;;;;;;;;;;;;;;1.78;93.72852;100535.2;;;;-75
2022/11/21 06:06:31;;;;;;;;;;;;;;;1.8;93.80762;100522.6;;;;-77
2022/11/21 06:07:10;;;;;;;21;7.9;;;;;;;;;;;;;-76
2022/11/21 06:11:28;;;;;;;;;;;;;;;1.82;94.18945;100523.6;;;;-76
2022/11/21 06:16:28;;;;;;;;;;;;;;;1.81;94.5332;100528.1;;;;-78
2022/11/21 06:21:29;;;;;;;;;;;;;;;1.82;94.09082;100526.2;;;;-77
2022/11/21 06:26:29;;;;;;;;;;;;;;;1.83;94.21289;100527;;;;-77
2022/11/21 06:31:30;;;;;;;;;;;;;;;1.84;94.10547;100525.4;;;;-76
2022/11/21 06:36:29;;;;;;;;;;;;;;;1.84;93.87012;100525.5;;;;-76
2022/11/21 06:37:13;;;;;;;24.2;8.1;;;;;;;;;;;;;-76
2022/11/21 06:41:32;;;;;;;;;;;;;;;1.86;93.86328;100516.1;;;;-76
2022/11/21 06:46:50;;;;;;;;;;;;;;;1.89;93.7627;100501.9;;;;-78
2022/11/21 06:51:46;;;;;;;;;;;;;;;1.99;93.6748;100493;;;;-76
2022/11/21 06:56:31;;;;;;;;;;;;;;;1.9;93.89453;100480.7;;;;-76
2022/11/21 07:01:26;;;;;;;;;;;;;;;1.93;93.93262;100473.6;;;;-77
2022/11/21 07:06:26;;;;;;;;;;;;;;;1.94;94.36523;100462.3;;;;-76
2022/11/21 07:07:08;;;;;;;19.7;7.5;;;;;;;;;;;;;-76
2022/11/21 07:11:25;;;;;;;;;;;;;;;1.95;94.30566;100464.8;;;;-76
2022/11/21 07:16:29;;;;;;;;;;;;;;;1.96;94.12207;100474.3;;;;-77
2022/11/21 07:21:25;;;;;;;;;;;;;;;1.99;94.63574;100470.8;;;;-77
2022/11/21 07:26:25;;;;;;;;;;;;;;;2.01;94.30762;100475.4;;;;-77
2022/11/21 07:31:25;;;;;;;;;;;;;;;2.04;94.37598;100481.1;;;;-77
2022/11/21 07:36:26;;;;;;;;;;;;;;;2.05;94.03613;100478.6;;;;-77
2022/11/21 07:37:07;;;;;;;21.9;8;;;;;;;;;;;;;-77
2022/11/21 07:41:25;;;;;;;;;;;;;;;2.07;94.26465;100470;;;;-78
2022/11/21 07:46:25;;;;;;;;;;;;;;;2.09;94.16113;100466.1;;;;-77
2022/11/21 07:51:25;;;;;;;;;;;;;;;2.11;94.25195;100457.3;;;;-77
2022/11/21 07:56:25;;;;;;;;;;;;;;;2.14;94.47363;100449.8;;;;-77
2022/11/21 08:01:25;;;;;;;;;;;;;;;2.17;94.5791;100438.9;;;;-77
2022/11/21 08:06:25;;;;;;;;;;;;;;;2.23;95.49805;100443.2;;;;-78
2022/11/21 08:07:10;;;;;;;21.2;8.4;;;;;;;;;;;;;-76
2022/11/21 08:11:25;;;;;;;;;;;;;;;2.27;95.44336;100435.7;;;;-77
2022/11/21 08:16:26;;;;;;;;;;;;;;;2.31;94.92188;100430.1;;;;-77
2022/11/21 08:21:25;;;;;;;;;;;;;;;2.39;95.66406;100421.4;;;;-77
2022/11/21 08:26:25;;;;;;;;;;;;;;;2.43;95.76074;100419;;;;-76
2022/11/21 08:31:25;;;;;;;;;;;;;;;2.46;94.90234;100428.4;;;;-77
2022/11/21 08:36:25;;;;;;;;;;;;;;;2.49;95.25391;100422.4;;;;-78
2022/11/21 08:37:06;;;;;;;17.5;8.2;;;;;;;;;;;;;-77
2022/11/21 08:46:27;;;;;;;;;;;;;;;2.6;96.46973;100383.7;;;;-78
2022/11/21 08:51:25;;;;;;;;;;;;;;;2.65;95.9502;100384.6;;;;-78
2022/11/21 08:56:25;;;;;;;;;;;;;;;2.76;96.39648;100388.9;;;;-78
2022/11/21 09:01:25;;;;;;;;;;;;;;;2.86;96.00781;100390.2;;;;-79
2022/11/21 09:06:25;;;;;;;;;;;;;;;2.94;96.23145;100385.6;;;;-79
2022/11/21 09:07:05;;;;;;;18.6;8.5;;;;;;;;;;;;;-79
2022/11/21 09:11:25;;;;;;;;;;;;;;;3.04;96.56543;100371.5;;;;-78
2022/11/21 09:21:25;;;;;;;;;;;;;;;3.17;96.12012;100362.9;;;;-77
2022/11/21 09:26:25;;;;;;;;;;;;;;;3.19;96.08008;100351.3;;;;-78
2022/11/21 09:31:39;;;;;;;;;;;;;;;3.23;96.42676;100340;;;;-77
2022/11/21 09:36:25;;;;;;;;;;;;;;;3.34;96.71973;100322.4;;;;-77
2022/11/21 09:46:29;;;;;;;;;;;;;;;3.56;96.16406;100301.8;;;;-77
2022/11/21 09:51:26;;;;;;;;;;;;;;;3.63;96.24316;100297.3;;;;-78
2022/11/21 09:56:36;;;;;;;;;;;;;;;3.66;96.09766;100292.6;;;;-77
2022/11/21 10:01:27;;;;;;;;;;;;;;;3.68;96.04883;100301.1;;;;-77
2022/11/21 10:06:28;;;;;;;;;;;;;;;3.71;95.77344;100294.8;;;;-78
2022/11/21 10:07:09;;;;;;;19.6;8.1;;;;;;;;;;;;;-76
2022/11/21 10:11:30;;;;;;;;;;;;;;;3.77;95.83105;100299.7;;;;-77
2022/11/21 10:16:31;;;;;;;;;;;;;;;3.81;95.73047;100297.6;;;;-78
2022/11/21 10:21:30;;;;;;;;;;;;;;;3.84;95.61719;100293.4;;;;-77
2022/11/21 10:26:34;;;;;;;;;;;;;;;3.87;95.7207;100282.3;;;;-76
2022/11/21 10:31:25;;;;;;;;;;;;;;;3.9;95.88086;100275.4;;;;-74
2022/11/21 10:36:29;;;;;;;;;;;;;;;3.96;95.84961;100273.6;;;;-77
2022/11/21 10:37:06;;;;;;;16.4;7.6;;;;;;;;;;;;;-77
2022/11/21 10:41:28;;;;;;;;;;;;;;;4.02;96.01758;100266.7;;;;-76
2022/11/21 10:46:25;;;;;;;;;;;;;;;4.05;95.76367;100254;;;;-76
2022/11/21 10:51:31;;;;;;;;;;;;;;;4.09;95.78223;100246.5;;;;-77
2022/11/21 10:56:26;;;;;;;;;;;;;;;4.13;95.74902;100237.2;;;;-77
2022/11/21 11:01:27;;;;;;;;;;;;;;;4.19;95.38086;100231.6;;;;-79
2022/11/21 11:06:30;;;;;;;;;;;;;;;4.26;95.71191;100230.3;;;;-76
2022/11/21 11:07:13;;;;;;;18.5;7.8;;;;;;;;;;;;;-77
2022/11/21 11:11:30;;;;;;;;;;;;;;;4.29;95.90234;100226.4;;;;-76
2022/11/21 11:16:31;;;;;;;;;;;;;;;4.34;95.69824;100216.1;;;;-76
2022/11/21 11:21:26;;;;;;;;;;;;;;;4.4;95.66602;100211.8;;;;-76
2022/11/21 11:26:33;;;;;;;;;;;;;;;4.46;95.69141;100195.6;;;;-76
2022/11/21 11:31:25;;;;;;;;;;;;;;;4.53;95.41406;100188.9;;;;-77
2022/11/21 11:36:33;;;;;;;;;;;;;;;4.58;95.40039;100185.8;;;;-77
2022/11/21 11:37:16;;;;;;;18.3;8.6;;;;;;;;;;;;;-76
2022/11/21 11:47:29;;;;;;;;;;;;;;;4.65;95.35352;100172.4;;;;-75
2022/11/21 11:51:28;;;;;;;;;;;;;;;4.82;95.51953;100158.3;;;;-77
2022/11/21 11:56:27;;;;;;;;;;;;;;;4.9;95.47266;100143.4;;;;-76
2022/11/21 12:01:29;;;;;;;;;;;;;;;4.97;95.6084;100125.8;;;;-76
2022/11/21 12:06:28;;;;;;;;;;;;;;;5.02;95.43359;100114.3;;;;-76
2022/11/21 12:07:06;;;;;;;18.7;8.3;;;;;;;;;;;;;-76
2022/11/21 12:16:27;;;;;;;;;;;;;;;5.19;96.08105;100099.2;;;;-75
2022/11/21 12:21:28;;;;;;;;;;;;;;;5.24;95.64551;100085.7;;;;-76
2022/11/21 12:26:31;;;;;;;;;;;;;;;5.27;96.08789;100084;;;;-76
2022/11/21 12:31:30;;;;;;;;;;;;;;;5.28;96.62305;100066.5;;;;-75
2022/11/21 12:36:31;;;;;;;;;;;;;;;5.29;96.27539;100052.8;;;;-76
2022/11/21 12:37:07;;;;;;;20.3;9.2;;;;;;;;;;;;;-76
2022/11/21 12:46:28;;;;;;;;;;;;;;;5.29;96.43848;100037.8;;;;-76
2022/11/21 12:56:31;;;;;;;;;;;;;;;5.36;96.24805;100014.7;;;;-76
2022/11/21 13:01:30;;;;;;;;;;;;;;;5.37;96.4043;100001;;;;-76
2022/11/21 13:06:26;;;;;;;;;;;;;;;5.38;96.24121;99991.36;;;;-76
2022/11/21 13:07:05;;;;;;;21.8;10.2;;;;;;;;;;;;;-78
2022/11/21 13:16:35;;;;;;;;;;;;;;;5.43;96.19824;99968;;;;-75
2022/11/21 13:21:36;;;;;;;;;;;;;;;5.42;96.16602;99956.59;;;;-74
2022/11/21 13:26:36;;;;;;;;;;;;;;;5.45;96.46387;99940.52;;;;-76
2022/11/21 13:31:37;;;;;;;;;;;;;;;5.47;96.55664;99922.66;;;;-76
2022/11/21 13:36:42;;;;;;;;;;;;;;;5.49;96.89648;99917.89;;;;-76
2022/11/21 13:37:03;;;;;;;21.9;9.9;;;;;;;;;;;;;-76
2022/11/21 13:46:36;;;;;;;;;;;;;;;5.58;96.58984;99898.08;;;;-75
2022/11/21 13:51:44;;;;;;;;;;;;;;;5.66;96.89355;99888.31;;;;-75
2022/11/21 13:56:34;;;;;;;;;;;;;;;5.7;97.22852;99879.5;;;;-75
2022/11/21 14:01:38;;;;;;;;;;;;;;;5.71;97.12109;99871.64;;;;-75
2022/11/21 14:06:34;;;;;;;;;;;;;;;5.72;96.99219;99870.76;;;;-75
2022/11/21 14:07:13;;;;;;;22.5;10.3;;;;;;;;;;;;;-75
2022/11/21 14:11:35;;;;;;;;;;;;;;;5.72;97.30859;99859.95;;;;-76
2022/11/21 14:16:31;;;;;;;;;;;;;;;5.66;97.17383;99850.25;;;;-76
2022/11/21 14:21:26;;;;;;;;;;;;;;;5.69;97.28223;99839.47;;;;-76
2022/11/21 14:22:12;;;;;;;;;;;;;;;5.78;97.25586;99833.98;;;;-75
2022/11/21 14:25:55;;;;;;;;;;;;;;;5.7;97.57617;99829.41;;;;-76
2022/11/21 14:30:50;;;;;;;;;;;;;;;5.68;97.57031;99827.38;;;;-76
2022/11/21 14:35:50;;;;;;;;;;;;;;;5.68;97.45313;99814.7;;;;-76
2022/11/21 14:37:06;;;;;;;22.7;10.2;;;;;;;;;;;;;-76
2022/11/21 14:40:50;;;;;;;;;;;;;;;5.68;97.3418;99821.31;;;;-75
2022/11/21 14:45:55;;;;;;;;;;;;;;;5.64;97.19238;99811.66;;;;-76
2022/11/21 14:50:51;;;;;;;;;;;;;;;5.59;96.95117;99802.8;;;;-76
2022/11/21 14:55:51;;;;;;;;;;;;;;;5.56;97.37012;99791.55;;;;-75
2022/11/21 15:01:04;;;;;;;;;;;;;;;5.5;97.48828;99786.52;;;;-75
2022/11/21 15:05:51;;;;;;;;;;;;;;;5.46;97.64063;99772.67;;;;-76
2022/11/21 15:07:03;;;;;;;19.5;9.5;;;;;;;;;;;;;-75
2022/11/21 15:10:50;;;;;;;;;;;;;;;5.43;97.59277;99770.08;;;;-76
2022/11/21 15:15:51;;;;;;;;;;;;;;;5.43;97.7998;99772.69;;;;-76
2022/11/21 15:20:53;;;;;;;;;;;;;;;5.43;98.00391;99763.23;;;;-76
2022/11/21 15:25:51;;;;;;;;;;;;;;;5.42;97.88477;99766.11;;;;-75
2022/11/21 15:30:50;;;;;;;;;;;;;;;5.41;97.82422;99761.38;;;;-75
2022/11/21 15:35:54;;;;;;;;;;;;;;;5.39;97.61328;99750.08;;;;-76
2022/11/21 15:37:15;;;;;;;20.2;9.2;;;;;;;;;;;;;-76
2022/11/21 15:41:02;;;;;;;;;;;;;;;5.36;97.74902;99748.43;;;;-76
2022/11/21 15:45:50;;;;;;;;;;;;;;;5.38;98.20996;99733.74;;;;-76
2022/11/21 15:50:50;;;;;;;;;;;;;;;5.39;98.07031;99723.24;;;;-76
2022/11/21 15:55:56;;;;;;;;;;;;;;;5.37;97.91406;99717.99;;;;-76
2022/11/21 16:00:50;;;;;;;;;;;;;;;5.34;98.05957;99707.44;;;;-74
2022/11/21 16:05:51;;;;;;;;;;;;;;;5.36;98.3252;99690.16;;;;-75
2022/11/21 16:07:03;;;;;;;18.4;8.9;;;;;;;;;;;;;-76
2022/11/21 16:10:50;;;;;;;;;;;;;;;5.36;98.13965;99685.48;;;;-76
2022/11/21 16:15:50;;;;;;;;;;;;;;;5.34;98.12695;99673.47;;;;-75
2022/11/21 16:20:50;;;;;;;;;;;;;;;5.33;97.90527;99664.98;;;;-75
2022/11/21 16:25:58;;;;;;;;;;;;;;;5.32;98.01465;99669.17;;;;-76
2022/11/21 16:30:50;;;;;;;;;;;;;;;5.3;98.34473;99665.89;;;;-75
2022/11/21 16:35:53;;;;;;;;;;;;;;;5.31;98.3125;99659.94;;;;-76
2022/11/21 16:37:03;;;;;;;17.9;8;;;;;;;;;;;;;-76
2022/11/21 16:40:55;;;;;;;;;;;;;;;5.3;98.46484;99653.19;;;;-75
2022/11/21 16:45:51;;;;;;;;;;;;;;;5.29;98.44336;99642.06;;;;-75
2022/11/21 16:50:50;;;;;;;;;;;;;;;5.29;98.82129;99624.52;;;;-74
2022/11/21 16:55:50;;;;;;;;;;;;;;;5.3;99.11719;99609.98;;;;-75
2022/11/21 17:00:50;;;;;;;;;;;;;;;5.3;99.26855;99598.86;;;;-76
2022/11/21 17:05:58;;;;;;;;;;;;;;;5.3;99.51855;99586;;;;-76
2022/11/21 17:07:03;;;;;;;16.1;7.4;;;;;;;;;;;;;-77
2022/11/21 17:10:50;;;;;;;;;;;;;;;5.3;99.28027;99575.86;;;;-76
2022/11/21 17:15:50;;;;;;;;;;;;;;;5.28;99.51465;99567.05;;;;-75
2022/11/21 17:20:50;;;;;;;;;;;;;;;5.27;99.53418;99571;;;;-76
2022/11/21 17:25:50;;;;;;;;;;;;;;;5.27;99.46973;99566.69;;;;-76
2022/11/21 17:30:50;;;;;;;;;;;;;;;5.25;99.5957;99552.64;;;;-76
2022/11/21 17:35:50;;;;;;;;;;;;;;;5.24;99.71094;99548.25;;;;-75
2022/11/21 17:37:05;;;;;;;16;6.8;;;;;;;;;;;;;-77
2022/11/21 17:40:50;;;;;;;;;;;;;;;5.23;99.80859;99540.69;;;;-77
2022/11/21 17:45:50;;;;;;;;;;;;;;;5.22;99.79395;99532.22;;;;-76
2022/11/21 17:50:50;;;;;;;;;;;;;;;5.22;99.81543;99522.27;;;;-75
2022/11/21 17:55:51;;;;;;;;;;;;;;;5.21;99.88086;99516.27;;;;-77
2022/11/21 18:00:50;;;;;;;;;;;;;;;5.2;99.7998;99510.91;;;;-81
2022/11/21 18:05:50;;;;;;;;;;;;;;;5.19;99.79785;99506.52;;;;-76
2022/11/21 18:07:02;;;;;;;16.4;6.2;;;;;;;;;;;;;-77
2022/11/21 18:10:54;;;;;;;;;;;;;;;5.19;99.9043;99497.3;;;;-77
2022/11/21 18:15:50;;;;;;;;;;;;;;;5.18;99.81738;99490.22;;;;-76
2022/11/21 18:20:50;;;;;;;;;;;;;;;5.17;99.8916;99482.4;;;;-77
2022/11/21 18:25:50;;;;;;;;;;;;;;;5.16;100;99477.63;;;;-77
2022/11/21 18:30:50;;;;;;;;;;;;;;;5.15;100;99468.72;;;;-77
2022/11/21 18:35:53;;;;;;;;;;;;;;;5.15;100;99464.37;;;;-76
2022/11/21 18:37:02;;;;;;;12.7;5.4;;;;;;;;;;;;;-76
2022/11/21 18:40:50;;;;;;;;;;;;;;;5.14;100;99458.31;;;;-76
2022/11/21 18:45:50;;;;;;;;;;;;;;;5.12;100;99443.13;;;;-77
2022/11/21 18:50:50;;;;;;;;;;;;;;;5.12;100;99439.04;;;;-77
2022/11/21 18:55:51;;;;;;;;;;;;;;;5.1;100;99429.91;;;;-77
2022/11/21 19:00:50;;;;;;;;;;;;;;;5.09;100;99425.56;;;;-76
2022/11/21 19:05:50;;;;;;;;;;;;;;;5.07;100;99417.05;;;;-76
2022/11/21 19:07:02;;;;;;;11.6;5.5;;;;;;;;;;;;;-76
2022/11/21 19:10:50;;;;;;;;;;;;;;;5.05;100;99408.9;;;;-75
2022/11/21 19:15:50;;;;;;;;;;;;;;;5.06;100;99403.83;;;;-76
2022/11/21 19:20:50;;;;;;;;;;;;;;;5.06;100;99400.27;;;;-77
2022/11/21 19:25:52;;;;;;;;;;;;;;;5.05;100;99388.19;;;;-75
2022/11/21 19:30:50;;;;;;;;;;;;;;;5.05;100;99383.52;;;;-76
2022/11/21 19:35:50;;;;;;;;;;;;;;;5.06;100;99373.93;;;;-75
2022/11/21 19:37:02;;;;;;;10.9;4.6;;;;;;;;;;;;;-76
2022/11/21 19:45:51;;;;;;;;;;;;;;;5.06;100;99351.2;;;;-75
2022/11/21 19:50:56;;;;;;;;;;;;;;;5.07;100;99354.47;;;;-76
2022/11/21 19:55:50;;;;;;;;;;;;;;;5.08;100;99353.58;;;;-75
2022/11/21 20:00:50;;;;;;;;;;;;;;;5.07;100;99350.67;;;;-75
2022/11/21 20:05:50;;;;;;;;;;;;;;;5.09;100;99346.23;;;;-76
2022/11/21 20:07:02;;;;;;;9.3;4.4;;;;;;;;;;;;;-75
2022/11/21 20:10:50;;;;;;;;;;;;;;;5.09;100;99339.32;;;;-75
2022/11/21 20:15:52;;;;;;;;;;;;;;;5.09;100;99331.3;;;;-77
2022/11/21 20:20:50;;;;;;;;;;;;;;;5.1;100;99322.05;;;;-78
2022/11/21 20:25:52;;;;;;;;;;;;;;;5.1;100;99322.05;;;;-76
2022/11/21 20:30:50;;;;;;;;;;;;;;;5.11;100;99311.19;;;;-76
2022/11/21 20:35:50;;;;;;;;;;;;;;;5.09;100;99308.11;;;;-77
2022/11/21 20:37:03;;;;;;;11.8;5.1;;;;;;;;;;;;;-77
2022/11/21 20:40:54;;;;;;;;;;;;;;;5.1;100;99302.78;;;;-76
2022/11/21 20:45:50;;;;;;;;;;;;;;;5.1;100;99305.72;;;;-78
2022/11/21 20:50:57;;;;;;;;;;;;;;;5.09;100;99305.17;;;;-77
2022/11/21 20:55:50;;;;;;;;;;;;;;;5.09;100;99297.13;;;;-77
2022/11/21 21:00:50;;;;;;;;;;;;;;;5.1;100;99295.61;;;;-78
2022/11/21 21:05:51;;;;;;;;;;;;;;;5.1;100;99291.66;;;;-78
2022/11/21 21:07:02;;;;;;;10;4.5;;;;;;;;;;;;;-77
2022/11/21 21:10:50;;;;;;;;;;;;;;;5.1;100;99289.14;;;;-78
2022/11/21 21:15:52;;;;;;;;;;;;;;;5.09;100;99285.02;;;;-78
2022/11/21 21:20:51;;;;;;;;;;;;;;;5.09;100;99280.77;;;;-78
2022/11/21 21:25:53;;;;;;;;;;;;;;;5.11;100;99277.45;;;;-78
2022/11/21 21:30:51;;;;;;;;;;;;;;;5.1;100;99269.73;;;;-78
2022/11/21 21:35:50;;;;;;;;;;;;;;;5.09;100;99258.94;;;;-79
2022/11/21 21:37:02;;;;;;;11.1;4.4;;;;;;;;;;;;;-79
2022/11/21 21:40:50;;;;;;;;;;;;;;;5.1;100;99240.72;;;;-79
2022/11/21 21:45:50;;;;;;;;;;;;;;;5.08;100;99240.59;;;;-77
2022/11/21 21:50:51;;;;;;;;;;;;;;;5.09;100;99237.02;;;;-77
2022/11/21 21:55:50;;;;;;;;;;;;;;;5.09;100;99229.83;;;;-77
2022/11/21 22:00:50;;;;;;;;;;;;;;;5.1;100;99225.38;;;;-77
2022/11/21 22:05:50;;;;;;;;;;;;;;;5.09;100;99221.42;;;;-77
2022/11/21 22:07:04;;;;;;;9.3;4;;;;;;;;;;;;;-77
2022/11/21 22:10:50;;;;;;;;;;;;;;;5.1;100;99219.13;;;;-77
2022/11/21 22:15:51;;;;;;;;;;;;;;;5.09;100;99208.23;;;;-78
2022/11/21 22:20:50;;;;;;;;;;;;;;;5.12;100;99205.45;;;;-77
2022/11/21 22:25:50;;;;;;;;;;;;;;;5.11;100;99193.55;;;;-76
2022/11/21 22:30:59;;;;;;;;;;;;;;;5.11;100;99179.02;;;;-77
2022/11/21 22:35:50;;;;;;;;;;;;;;;5.11;100;99173.2;;;;-77
2022/11/21 22:37:01;;;;;;;8.9;3.8;;;;;;;;;;;;;-77
2022/11/21 22:40:50;;;;;;;;;;;;;;;5.12;100;99170.38;;;;-77
2022/11/21 22:45:50;;;;;;;;;;;;;;;5.12;100;99164.56;;;;-77
2022/11/21 22:50:50;;;;;;;;;;;;;;;5.12;100;99159.16;;;;-77
2022/11/21 22:55:58;;;;;;;;;;;;;;;5.12;100;99156.64;;;;-77
2022/11/21 23:00:50;;;;;;;;;;;;;;;5.14;100;99152.12;;;;-78
2022/11/21 23:05:50;;;;;;;;;;;;;;;5.15;100;99156.8;;;;-77
2022/11/21 23:07:02;;;;;;;9.7;4.2;;;;;;;;;;;;;-77
2022/11/21 23:10:51;;;;;;;;;;;;;;;5.15;100;99142.17;;;;-80
2022/11/21 23:15:50;;;;;;;;;;;;;;;5.15;100;99131.14;;;;-78
2022/11/21 23:20:51;;;;;;;;;;;;;;;5.16;100;99134.25;;;;-80
2022/11/21 23:25:50;;;;;;;;;;;;;;;5.17;100;99126.45;;;;-76
2022/11/21 23:30:50;;;;;;;;;;;;;;;5.18;100;99124.82;;;;-79
2022/11/21 23:35:50;;;;;;;;;;;;;;;5.17;100;99119.09;;;;-77
2022/11/21 23:37:02;;;;;;;11.1;4;;;;;;;;;;;;;-77
2022/11/21 23:40:51;;;;;;;;;;;;;;;5.19;100;99115.63;;;;-76
2022/11/21 23:45:52;;;;;;;;;;;;;;;5.2;100;99108.36;;;;-77
2022/11/21 23:50:50;;;;;;;;;;;;;;;5.2;100;99102;;;;-78
2022/11/21 23:55:53;;;;;;;;;;;;;;;5.2;100;99108.84;;;;-78
